createdAt,value
2022-12-13T00:01:26.306Z,22.27
2022-12-13T00:03:54.227Z,25.42
2022-12-13T00:06:21.367Z,22.00
2022-12-13T00:08:48.396Z,20.97
2022-12-13T00:11:17.202Z,21.70
2022-12-13T00:13:44.370Z,17.10
2022-12-13T00:16:14.136Z,21.43
2022-12-13T00:18:41.116Z,21.40
2022-12-13T00:21:12.892Z,21.47
2022-12-13T00:23:39.818Z,23.63
2022-12-13T00:26:10.204Z,21.97
2022-12-13T00:28:37.787Z,22.23
2022-12-13T00:31:35.258Z,18.83
2022-12-13T00:33:52.169Z,22.53
2022-12-13T00:36:19.928Z,24.87
2022-12-13T00:38:46.876Z,19.80
2022-12-13T00:41:16.988Z,21.33
2022-12-13T00:43:44.720Z,21.13
2022-12-13T00:46:17.587Z,20.83
2022-12-13T00:48:48.345Z,17.17
2022-12-13T00:51:15.442Z,17.40
2022-12-13T00:53:42.383Z,18.33
2022-12-13T00:56:15.013Z,16.33
2022-12-13T00:58:45.015Z,18.40
2022-12-13T01:01:15.823Z,15.83
2022-12-13T01:03:43.196Z,18.65
2022-12-13T01:06:17.639Z,16.27
2022-12-13T01:08:45.116Z,17.30
2022-12-13T01:11:12.900Z,16.53
2022-12-13T01:13:40.368Z,16.40
2022-12-13T01:16:09.735Z,16.27
2022-12-13T01:21:11.441Z,16.77
2022-12-13T01:23:39.122Z,14.57
2022-12-13T01:26:08.429Z,13.80
2022-12-13T01:31:05.972Z,15.07
2022-12-13T01:33:33.850Z,14.40
2022-12-13T01:36:02.888Z,9.32
2022-12-13T01:38:29.702Z,16.27
2022-12-13T01:41:00.179Z,16.23
2022-12-13T01:43:50.216Z,12.37
2022-12-13T01:46:18.959Z,14.57
2022-12-13T01:49:00.824Z,9.70
2022-12-13T01:51:38.137Z,13.63
2022-12-13T01:54:08.796Z,12.63
2022-12-13T01:56:42.881Z,13.53
2022-12-13T01:59:11.602Z,13.27
2022-12-13T02:04:07.395Z,12.10
2022-12-13T02:06:38.107Z,10.82
2022-12-13T02:09:07.054Z,11.40
2022-12-13T02:11:36.037Z,11.47
2022-12-13T02:14:03.608Z,11.35
2022-12-13T02:16:52.989Z,11.63
2022-12-13T02:19:54.736Z,10.60
2022-12-13T02:22:46.226Z,12.67
2022-12-13T02:25:28.415Z,12.77
2022-12-13T02:28:30.180Z,11.17
2022-12-13T02:31:43.676Z,11.20
2022-12-13T02:34:34.972Z,10.57
2022-12-13T02:37:23.719Z,10.77
2022-12-13T02:43:07.276Z,10.80
2022-12-13T02:45:46.287Z,10.37
2022-12-13T02:48:15.765Z,10.85
2022-12-13T02:50:43.426Z,10.77
2022-12-13T02:53:12.996Z,10.20
2022-12-13T02:55:40.783Z,9.53
2022-12-13T02:58:07.691Z,11.20
2022-12-13T03:00:51.275Z,7.83
2022-12-13T03:03:46.141Z,9.80
2022-12-13T03:06:33.286Z,8.93
2022-12-13T03:09:09.902Z,8.38
2022-12-13T03:12:12.229Z,10.77
2022-12-13T03:14:45.387Z,9.03
2022-12-13T03:17:17.210Z,9.73
2022-12-13T03:19:44.431Z,8.33
2022-12-13T03:22:12.096Z,8.10
2022-12-13T03:24:38.874Z,7.70
2022-12-13T03:27:06.158Z,8.37
2022-12-13T03:29:32.944Z,8.60
2022-12-13T03:32:00.093Z,8.53
2022-12-13T03:34:26.941Z,7.20
2022-12-13T03:37:12.305Z,8.70
2022-12-13T03:39:39.415Z,7.87
2022-12-13T03:42:06.661Z,7.83
2022-12-13T03:44:33.445Z,8.23
2022-12-13T03:47:00.890Z,8.20
2022-12-13T03:49:35.203Z,7.40
2022-12-13T03:52:02.849Z,6.67
2022-12-13T03:54:29.646Z,7.20
2022-12-13T03:56:56.786Z,7.00
2022-12-13T03:59:23.524Z,6.97
2022-12-13T04:01:50.715Z,6.87
2022-12-13T04:04:17.544Z,7.00
2022-12-13T04:06:44.720Z,6.63
2022-12-13T04:09:11.483Z,7.10
2022-12-13T04:11:57.202Z,6.30
2022-12-13T04:14:24.039Z,6.27
2022-12-13T04:16:52.558Z,6.57
2022-12-13T04:19:22.869Z,5.57
2022-12-13T04:21:54.284Z,6.10
2022-12-13T04:24:22.477Z,6.13
2022-12-13T04:27:01.019Z,5.70
2022-12-13T04:29:34.537Z,6.75
2022-12-13T04:32:05.755Z,5.70
2022-12-13T04:34:52.601Z,4.97
2022-12-13T04:37:28.793Z,6.50
2022-12-13T04:40:00.949Z,6.63
2022-12-13T04:42:28.661Z,6.30
2022-12-13T04:44:55.467Z,6.27
2022-12-13T04:47:22.951Z,6.20
2022-12-13T04:49:49.821Z,6.53
2022-12-13T04:52:22.764Z,5.93
2022-12-13T04:54:55.833Z,6.00
2022-12-13T04:57:23.968Z,7.03
2022-12-13T04:59:50.713Z,6.70
2022-12-13T05:02:23.401Z,6.20
2022-12-13T05:04:54.411Z,6.40
2022-12-13T05:07:23.011Z,7.70
2022-12-13T05:09:49.814Z,6.93
2022-12-13T05:12:22.578Z,6.43
2022-12-13T05:14:51.582Z,6.07
2022-12-13T05:17:18.915Z,7.43
2022-12-13T05:19:45.805Z,8.37
2022-12-13T05:22:19.896Z,8.63
2022-12-13T05:24:47.446Z,10.00
2022-12-13T05:27:25.893Z,10.00
2022-12-13T05:30:03.613Z,10.00
2022-12-13T05:32:44.026Z,9.88
2022-12-13T05:35:22.763Z,9.33
2022-12-13T05:37:53.861Z,11.07
2022-12-13T05:40:22.126Z,10.20
2022-12-13T05:42:49.316Z,9.53
2022-12-13T05:45:18.370Z,8.80
2022-12-13T05:47:45.790Z,9.57
2022-12-13T05:50:14.030Z,8.30
2022-12-13T05:52:43.005Z,9.32
2022-12-13T05:55:11.222Z,11.82
2022-12-13T05:57:38.726Z,13.98
2022-12-13T06:00:28.514Z,10.50
2022-12-13T06:02:55.750Z,12.67
2022-12-13T06:05:22.970Z,18.50
2022-12-13T06:07:55.117Z,13.70
2022-12-13T06:10:23.822Z,18.70
2022-12-13T06:12:50.893Z,14.87
2022-12-13T06:15:22.497Z,37.13
2022-12-13T06:17:50.110Z,25.17
2022-12-13T06:20:23.927Z,20.87
2022-12-13T06:22:54.672Z,11.97
2022-12-13T06:25:30.074Z,21.57
2022-12-13T06:28:01.690Z,19.40
2022-12-13T06:30:29.713Z,24.10
2022-12-13T06:32:57.448Z,16.10
2022-12-13T06:35:28.401Z,14.07
2022-12-13T06:38:01.194Z,15.90
2022-12-13T06:40:32.538Z,15.97
2022-12-13T06:42:59.771Z,19.70
2022-12-13T06:45:26.940Z,20.03
2022-12-13T06:47:54.044Z,19.57
2022-12-13T06:50:20.892Z,25.03
2022-12-13T06:52:48.196Z,18.20
2022-12-13T06:55:15.381Z,18.80
2022-12-13T06:57:51.937Z,18.50
2022-12-13T07:00:22.452Z,13.47
2022-12-13T07:02:56.944Z,10.17
2022-12-13T07:05:25.165Z,9.97
2022-12-13T07:07:52.328Z,13.80
2022-12-13T07:10:21.822Z,23.30
2022-12-13T07:12:50.678Z,12.77
2022-12-13T07:15:17.799Z,16.80
2022-12-13T07:17:44.948Z,10.77
2022-12-13T07:20:13.674Z,12.27
2022-12-13T07:25:28.462Z,13.50
2022-12-13T07:28:01.891Z,8.80
2022-12-13T07:30:34.507Z,12.63
2022-12-13T07:33:09.405Z,15.33
2022-12-13T07:35:37.184Z,11.53
2022-12-13T07:38:09.147Z,14.50
2022-12-13T07:40:38.343Z,12.60
2022-12-13T07:43:06.586Z,12.57
2022-12-13T07:45:33.665Z,12.13
2022-12-13T07:48:05.427Z,9.00
2022-12-13T07:50:36.828Z,11.37
2022-12-13T07:53:07.330Z,9.53
2022-12-13T07:55:34.555Z,10.20
2022-12-13T07:58:13.080Z,9.13
2022-12-13T08:00:46.474Z,9.88
2022-12-13T08:03:25.447Z,9.33
2022-12-13T08:06:05.572Z,10.20
2022-12-13T08:08:33.897Z,9.10
2022-12-13T08:11:04.477Z,10.07
2022-12-13T08:13:31.928Z,8.50
2022-12-13T08:16:04.572Z,8.07
2022-12-13T08:18:51.593Z,8.77
2022-12-13T08:21:51.833Z,7.00
2022-12-13T08:24:06.621Z,7.20
2022-12-13T08:26:35.037Z,9.33
2022-12-13T08:29:02.312Z,8.97
2022-12-13T08:31:33.853Z,8.33
2022-12-13T08:34:01.226Z,7.00
2022-12-13T08:36:28.651Z,7.83
2022-12-13T08:38:57.101Z,15.73
2022-12-13T08:41:24.755Z,7.93
2022-12-13T08:43:51.895Z,7.00
2022-12-13T08:46:18.739Z,7.40
2022-12-13T08:48:46.098Z,7.27
2022-12-13T08:51:24.560Z,8.27
2022-12-13T08:53:52.985Z,7.10
2022-12-13T08:56:37.670Z,6.57
2022-12-13T08:59:05.321Z,7.90
2022-12-13T09:01:32.904Z,7.80
2022-12-13T09:04:00.042Z,7.30
2022-12-13T09:06:26.984Z,5.90
2022-12-13T09:08:54.772Z,10.13
2022-12-13T09:11:34.726Z,63.20
2022-12-13T09:14:04.821Z,8.87
2022-12-13T09:16:35.750Z,8.03
2022-12-13T09:19:06.556Z,27.97
2022-12-13T09:24:24.257Z,5.93
2022-12-13T09:26:57.410Z,6.83
2022-12-13T09:29:25.512Z,6.00
2022-12-13T09:31:53.416Z,6.80
2022-12-13T09:34:20.842Z,7.18
2022-12-13T09:36:47.717Z,6.67
2022-12-13T09:39:16.260Z,7.73
2022-12-13T09:41:50.626Z,18.65
2022-12-13T09:44:31.019Z,9.80
2022-12-13T09:47:02.918Z,5.77
2022-12-13T09:49:35.941Z,5.17
2022-12-13T09:52:11.398Z,6.07
2022-12-13T09:54:55.365Z,17.33
2022-12-13T09:57:33.855Z,7.83
2022-12-13T10:00:07.310Z,7.60
2022-12-13T10:02:58.837Z,7.87
2022-12-13T10:05:33.664Z,8.37
2022-12-13T10:08:19.040Z,7.00
2022-12-13T10:10:46.273Z,7.67
2022-12-13T10:13:26.862Z,7.37
2022-12-13T10:16:02.439Z,9.37
2022-12-13T10:18:38.237Z,11.17
2022-12-13T10:21:11.740Z,8.70
2022-12-13T10:24:15.302Z,8.67
2022-12-13T10:26:25.841Z,8.90
2022-12-13T10:29:02.993Z,9.27
2022-12-13T10:31:30.453Z,10.37
2022-12-13T10:33:57.647Z,8.63
2022-12-13T10:36:30.339Z,9.47
2022-12-13T10:38:57.523Z,9.00
2022-12-13T10:41:30.476Z,14.03
2022-12-13T10:44:09.486Z,9.50
2022-12-13T10:46:38.797Z,7.93
2022-12-13T10:49:26.320Z,9.03
2022-12-13T10:51:54.457Z,9.80
2022-12-13T10:54:29.140Z,8.80
2022-12-13T10:57:11.578Z,8.50
2022-12-13T10:59:39.944Z,12.03
2022-12-13T11:02:28.565Z,9.25
2022-12-13T11:04:56.462Z,9.40
2022-12-13T11:07:34.222Z,9.53
2022-12-13T11:10:36.605Z,7.23
2022-12-13T11:13:07.227Z,14.93
2022-12-13T11:15:38.262Z,9.10
2022-12-13T11:18:18.678Z,11.93
2022-12-13T11:20:59.432Z,12.83
2022-12-13T11:23:39.821Z,9.77
2022-12-13T11:26:16.808Z,11.83
2022-12-13T11:29:25.960Z,8.77
2022-12-13T11:32:09.362Z,8.73
2022-12-13T11:35:14.338Z,8.00
2022-12-13T11:38:05.194Z,8.57
2022-12-13T11:40:38.011Z,9.03
2022-12-13T11:43:42.777Z,7.30
2022-12-13T11:46:38.905Z,6.13
2022-12-13T11:49:24.532Z,7.13
2022-12-13T11:52:04.286Z,6.87
2022-12-13T11:54:52.827Z,7.13
2022-12-13T12:00:34.171Z,7.97
2022-12-13T12:03:06.742Z,8.43
2022-12-13T12:05:38.319Z,7.37
2022-12-13T12:08:42.563Z,8.40
2022-12-13T12:11:20.403Z,8.63
2022-12-13T12:13:54.831Z,9.80
2022-12-13T12:16:51.231Z,11.67
2022-12-13T12:19:34.726Z,7.40
2022-12-13T12:22:26.387Z,8.63
2022-12-13T12:25:04.171Z,7.77
2022-12-13T12:27:51.477Z,7.43
2022-12-13T12:30:38.991Z,7.93
2022-12-13T12:33:26.126Z,7.63
2022-12-13T12:36:08.596Z,6.57
2022-12-13T12:39:03.337Z,9.37
2022-12-13T12:41:49.224Z,7.80
2022-12-13T12:44:21.793Z,9.90
2022-12-13T12:47:01.491Z,9.20
2022-12-13T12:50:11.451Z,9.93
2022-12-13T12:53:04.621Z,6.87
2022-12-13T12:55:58.868Z,7.07
2022-12-13T12:58:38.369Z,7.10
2022-12-13T13:01:17.501Z,7.50
2022-12-13T13:03:46.365Z,10.60
2022-12-13T13:06:37.587Z,9.00
2022-12-13T13:09:07.539Z,6.93
2022-12-13T13:11:43.380Z,8.83
2022-12-13T13:14:28.652Z,8.90
2022-12-13T13:16:56.269Z,7.57
2022-12-13T13:19:32.101Z,11.57
2022-12-13T13:22:01.822Z,6.50
2022-12-13T13:24:34.782Z,8.23
2022-12-13T13:27:10.772Z,6.83
2022-12-13T13:29:43.618Z,6.87
2022-12-13T13:32:11.326Z,6.77
2022-12-13T13:34:41.874Z,7.40
2022-12-13T13:37:23.933Z,9.07
2022-12-13T13:40:02.664Z,15.83
2022-12-13T13:42:33.098Z,49.00
2022-12-13T13:45:24.155Z,41.13
2022-12-13T13:48:14.527Z,16.93
2022-12-13T13:50:50.820Z,10.67
2022-12-13T13:53:50.400Z,13.07
2022-12-13T13:56:50.227Z,7.53
2022-12-13T13:59:52.726Z,8.60
2022-12-13T14:02:49.519Z,9.23
2022-12-13T14:05:35.189Z,9.30
2022-12-13T14:08:02.296Z,7.53
2022-12-13T14:10:44.725Z,8.73
2022-12-13T14:13:27.797Z,9.57
2022-12-13T14:15:57.700Z,9.10
2022-12-13T14:18:47.080Z,8.40
2022-12-13T14:21:23.085Z,6.28
2022-12-13T14:24:02.921Z,13.60
2022-12-13T14:26:51.681Z,12.23
2022-12-13T14:29:33.898Z,8.63
2022-12-13T14:32:01.193Z,9.53
2022-12-13T14:34:30.921Z,10.02
2022-12-13T14:39:31.349Z,9.23
2022-12-13T14:42:00.079Z,9.97
2022-12-13T14:47:06.164Z,8.67
2022-12-13T14:49:41.757Z,8.93
2022-12-13T14:52:27.000Z,8.53
2022-12-13T14:54:59.659Z,11.95
2022-12-13T14:57:32.040Z,11.57
2022-12-13T15:00:02.260Z,17.40
2022-12-13T15:02:32.359Z,15.70
2022-12-13T15:05:05.718Z,15.43
2022-12-13T15:07:38.504Z,11.13
2022-12-13T15:10:08.395Z,23.53
2022-12-13T15:12:35.225Z,11.80
2022-12-13T15:15:05.510Z,10.00
2022-12-13T15:17:40.062Z,10.10
2022-12-13T15:20:27.749Z,10.53
2022-12-13T15:23:10.099Z,12.17
2022-12-13T15:25:37.684Z,12.40
2022-12-13T15:28:05.875Z,11.53
2022-12-13T15:30:35.642Z,12.68
2022-12-13T15:33:08.009Z,12.93
2022-12-13T15:35:38.980Z,14.97
2022-12-13T15:38:14.853Z,15.57
2022-12-13T15:40:56.827Z,15.70
2022-12-13T15:43:33.225Z,13.73
2022-12-13T15:46:00.474Z,14.27
2022-12-13T15:48:32.091Z,32.77
2022-12-13T15:51:14.707Z,19.60
2022-12-13T15:54:07.159Z,25.00
2022-12-13T15:56:57.895Z,18.27
2022-12-13T15:59:27.442Z,20.93
2022-12-13T16:01:58.566Z,22.60
2022-12-13T16:04:29.104Z,18.67
2022-12-13T16:06:57.121Z,16.97
2022-12-13T16:09:38.209Z,15.50
2022-12-13T16:12:07.169Z,18.60
2022-12-13T16:14:49.394Z,25.02
2022-12-13T16:17:27.094Z,49.37
2022-12-13T16:19:56.080Z,58.57
2022-12-13T16:22:24.234Z,39.07
2022-12-13T16:24:52.748Z,38.07
2022-12-13T16:27:19.950Z,35.30
2022-12-13T16:29:46.717Z,31.43
2022-12-13T16:32:13.900Z,37.13
2022-12-13T16:34:40.729Z,39.97
2022-12-13T16:37:26.030Z,46.70
2022-12-13T16:39:54.121Z,70.17
2022-12-13T16:42:21.718Z,78.37
2022-12-13T16:45:11.282Z,58.73
2022-12-13T16:47:48.003Z,48.73
2022-12-13T16:50:18.883Z,42.33
2022-12-13T16:52:46.304Z,54.00
2022-12-13T16:55:13.156Z,38.10
2022-12-13T16:57:40.419Z,44.77
2022-12-13T17:00:10.623Z,32.63
2022-12-13T17:02:38.164Z,30.87
2022-12-13T17:05:05.663Z,21.40
2022-12-13T17:07:33.421Z,27.70
2022-12-13T17:10:00.219Z,17.27
2022-12-13T17:12:27.335Z,18.63
2022-12-13T17:14:54.468Z,17.80
2022-12-13T17:17:21.638Z,15.47
2022-12-13T17:19:48.533Z,15.77
2022-12-13T17:22:15.615Z,13.87
2022-12-13T17:24:42.464Z,12.60
2022-12-13T17:27:09.932Z,111.57
2022-12-13T17:29:36.890Z,23.00
2022-12-13T17:32:05.037Z,13.23
2022-12-13T17:34:32.074Z,12.50
2022-12-13T17:36:59.241Z,11.87
2022-12-13T17:39:26.077Z,11.63
2022-12-13T17:41:55.643Z,12.87
2022-12-13T17:44:24.458Z,13.00
2022-12-13T17:49:23.241Z,13.53
2022-12-13T17:51:52.815Z,13.63
2022-12-13T17:54:21.086Z,15.77
2022-12-13T17:56:48.739Z,15.15
2022-12-13T17:59:16.349Z,16.60
2022-12-13T18:01:44.255Z,15.27
2022-12-13T18:04:12.628Z,15.47
2022-12-13T18:06:40.380Z,16.02
2022-12-13T18:09:08.550Z,16.50
2022-12-13T18:11:35.938Z,22.13
2022-12-13T18:14:07.513Z,17.17
2022-12-13T18:16:37.987Z,16.07
2022-12-13T18:19:12.368Z,27.63
2022-12-13T18:21:40.052Z,17.90
2022-12-13T18:24:07.317Z,22.10
2022-12-13T18:26:34.875Z,27.23
2022-12-13T18:29:02.704Z,28.73
2022-12-13T18:31:29.886Z,28.38
2022-12-13T18:33:57.022Z,24.00
2022-12-13T18:36:25.339Z,30.17
2022-12-13T18:38:52.856Z,24.08
2022-12-13T18:41:23.908Z,23.53
2022-12-13T18:43:55.901Z,18.10
2022-12-13T18:46:31.625Z,17.83
2022-12-13T18:48:58.880Z,22.70
2022-12-13T18:51:27.126Z,29.07
2022-12-13T18:53:54.994Z,22.65
2022-12-13T18:56:22.924Z,34.72
2022-12-13T18:58:50.943Z,28.70
2022-12-13T19:01:19.100Z,35.03
2022-12-13T19:03:47.322Z,34.47
2022-12-13T19:06:23.206Z,29.40
2022-12-13T19:08:56.286Z,32.70
2022-12-13T19:11:26.052Z,38.03
2022-12-13T19:13:53.084Z,37.07
2022-12-13T19:16:21.844Z,33.97
2022-12-13T19:18:49.035Z,35.80
2022-12-13T19:21:19.090Z,35.63
2022-12-13T19:23:51.316Z,39.63
2022-12-13T19:26:22.829Z,44.17
2022-12-13T19:28:49.629Z,42.30
2022-12-13T19:31:16.775Z,45.37
2022-12-13T19:33:44.037Z,43.43
2022-12-13T19:36:11.697Z,41.63
2022-12-13T19:38:39.466Z,34.13
2022-12-13T19:41:09.401Z,37.38
2022-12-13T19:43:36.381Z,24.83
2022-12-13T19:46:03.921Z,26.90
2022-12-13T19:48:30.826Z,21.70
2022-12-13T19:50:59.862Z,22.50
2022-12-13T19:53:28.302Z,22.85
2022-12-13T19:55:56.282Z,25.80
2022-12-13T19:58:23.433Z,26.33
2022-12-13T20:00:50.696Z,20.27
2022-12-13T20:03:17.893Z,24.70
2022-12-13T20:05:45.987Z,22.27
2022-12-13T20:08:12.909Z,21.37
2022-12-13T20:10:40.086Z,24.00
2022-12-13T20:13:06.914Z,26.33
2022-12-13T20:15:34.128Z,28.97
2022-12-13T20:18:00.892Z,24.07
2022-12-13T20:20:40.973Z,25.20
2022-12-13T20:23:14.865Z,27.57
2022-12-13T20:25:41.999Z,29.23
2022-12-13T20:28:15.896Z,28.15
2022-12-13T20:30:43.504Z,26.73
2022-12-13T20:33:13.832Z,25.43
2022-12-13T20:36:00.929Z,26.73
2022-12-13T20:38:29.949Z,27.63
2022-12-13T20:41:02.101Z,26.40
2022-12-13T20:43:30.106Z,28.00
2022-12-13T20:46:10.228Z,24.15
2022-12-13T20:48:45.189Z,27.23
2022-12-13T20:51:14.789Z,28.40
2022-12-13T20:53:43.870Z,29.17
2022-12-13T20:56:18.516Z,29.77
2022-12-13T20:58:45.574Z,31.03
2022-12-13T21:01:21.102Z,29.10
2022-12-13T21:03:48.313Z,29.53
2022-12-13T21:06:15.793Z,29.17
2022-12-13T21:08:51.256Z,24.73
2022-12-13T21:11:35.146Z,29.70
2022-12-13T21:14:23.485Z,31.27
2022-12-13T21:16:57.074Z,32.63
2022-12-13T21:19:26.185Z,31.83
2022-12-13T21:21:54.589Z,34.27
2022-12-13T21:24:23.163Z,26.90
2022-12-13T21:29:18.868Z,21.93
2022-12-13T21:31:49.863Z,35.80
2022-12-13T21:34:18.083Z,37.27
2022-12-13T21:36:47.591Z,35.03
2022-12-13T21:39:17.945Z,34.70
2022-12-13T21:41:45.663Z,32.00
2022-12-13T21:44:15.228Z,32.00
2022-12-13T21:49:29.805Z,44.30
2022-12-13T21:51:57.358Z,36.47
2022-12-13T21:54:24.141Z,29.03
2022-12-13T21:57:09.854Z,34.97
2022-12-13T21:59:36.877Z,55.53
2022-12-13T22:02:12.143Z,42.27
2022-12-13T22:04:40.702Z,42.43
2022-12-13T22:07:09.400Z,36.55
2022-12-13T22:09:37.286Z,28.80
2022-12-13T22:12:10.192Z,29.50
2022-12-13T22:14:37.717Z,29.20
2022-12-13T22:17:04.797Z,33.83
2022-12-13T22:19:31.727Z,34.80
2022-12-13T22:21:58.912Z,31.47
2022-12-13T22:24:25.736Z,29.37
2022-12-13T22:26:52.768Z,30.40
2022-12-13T22:29:19.720Z,28.37
2022-12-13T22:31:48.850Z,34.23
2022-12-13T22:34:16.313Z,31.20
2022-12-13T22:36:43.423Z,27.53
2022-12-13T22:39:19.051Z,28.57
2022-12-13T22:41:47.424Z,26.93
2022-12-13T22:44:15.278Z,22.05
2022-12-13T22:46:43.009Z,23.88
2022-12-13T22:49:11.170Z,22.73
2022-12-13T22:51:39.267Z,21.92
2022-12-13T22:54:06.925Z,22.03
2022-12-13T22:56:34.482Z,21.87
2022-12-13T22:59:02.892Z,18.33
2022-12-13T23:01:39.957Z,24.15
2022-12-13T23:04:07.537Z,21.80
2022-12-13T23:06:37.286Z,18.73
2022-12-13T23:09:11.353Z,21.43
2022-12-13T23:11:57.830Z,19.20
2022-12-13T23:14:31.322Z,24.80
2022-12-13T23:16:59.258Z,22.10
2022-12-13T23:19:50.631Z,21.20
2022-12-13T23:22:14.173Z,21.15
2022-12-13T23:24:41.023Z,17.27
2022-12-13T23:27:08.073Z,21.17
2022-12-13T23:29:35.018Z,17.47
2022-12-13T23:32:02.184Z,17.03
2022-12-13T23:34:28.969Z,16.23
2022-12-13T23:36:56.046Z,16.87
2022-12-13T23:39:22.797Z,17.17
2022-12-13T23:41:49.972Z,17.53
2022-12-13T23:44:16.806Z,15.60
2022-12-13T23:46:48.579Z,16.30
2022-12-13T23:49:16.416Z,17.50
2022-12-13T23:51:43.772Z,16.47
2022-12-13T23:54:14.765Z,17.33
2022-12-13T23:56:42.105Z,16.93
2022-12-13T23:59:08.949Z,18.57
